createdAt,value
2017-04-04T13:31:56.331Z,10.76
2017-04-04T13:32:57.767Z,11.64
2017-04-04T13:33:59.216Z,10.98
2017-04-04T13:35:00.660Z,11.46
2017-04-04T13:36:02.107Z,8.56
2017-04-04T13:37:03.542Z,7.11
2017-04-04T13:38:04.992Z,7.48
2017-04-04T13:39:06.479Z,10.00
2017-04-04T13:40:07.877Z,9.15
2017-04-04T13:41:09.330Z,7.12
2017-04-04T13:42:10.771Z,5.94
2017-04-04T13:43:12.225Z,5.36
2017-04-04T13:44:13.667Z,6.35
2017-04-04T13:45:15.108Z,5.94
2017-04-04T13:46:16.551Z,6.04
2017-04-04T13:47:17.995Z,6.14
2017-04-04T13:48:19.435Z,7.97
2017-04-04T13:49:20.884Z,8.56
2017-04-04T13:50:22.323Z,9.33
2017-04-04T13:51:23.772Z,10.55
2017-04-04T13:52:25.215Z,12.57
2017-04-04T13:53:26.659Z,12.96
2017-04-04T13:54:28.118Z,15.33
2017-04-04T13:55:29.563Z,15.45
2017-04-04T13:56:31.006Z,16.20
2017-04-04T13:57:32.459Z,18.74
2017-04-04T13:58:33.916Z,19.68
2017-04-04T13:59:35.363Z,19.59
2017-04-04T14:00:36.800Z,19.11
2017-04-04T14:01:38.247Z,22.34
2017-04-04T14:02:39.704Z,23.88
2017-04-04T14:03:41.151Z,22.71
2017-04-04T14:04:42.594Z,22.72
2017-04-04T14:05:44.045Z,24.15
2017-04-04T14:06:45.515Z,25.21
2017-04-04T14:07:47.787Z,27.31
2017-04-04T14:08:49.272Z,28.06
2017-04-04T14:09:50.680Z,27.68
2017-04-04T14:10:52.121Z,28.64
2017-04-04T14:11:53.576Z,27.22
2017-04-04T14:12:55.018Z,28.16
2017-04-04T14:13:56.467Z,31.51
2017-04-04T14:14:57.909Z,32.38
2017-04-04T14:15:59.355Z,30.18
2017-04-04T14:17:00.795Z,29.49
2017-04-04T14:18:02.237Z,30.46
2017-04-04T14:19:03.688Z,29.22
2017-04-04T14:20:05.119Z,30.35
2017-04-04T14:21:06.558Z,30.44
2017-04-04T14:22:07.998Z,30.16
2017-04-04T14:23:09.444Z,30.44
2017-04-04T14:24:10.882Z,26.14
2017-04-04T14:25:12.329Z,27.76
2017-04-04T14:26:13.760Z,30.73
2017-04-04T14:27:15.197Z,32.46
2017-04-04T14:28:16.642Z,32.46
2017-04-04T14:29:18.087Z,33.80
2017-04-04T14:30:19.529Z,33.70
2017-04-04T14:31:20.972Z,33.32
2017-04-04T14:32:22.408Z,33.01
2017-04-04T14:33:23.860Z,33.69
2017-04-04T14:34:25.412Z,36.19
2017-04-04T14:35:26.843Z,34.75
2017-04-04T14:36:28.309Z,33.03
2017-04-04T14:37:29.746Z,32.73
2017-04-04T14:38:31.120Z,33.51
2017-04-04T14:39:32.570Z,33.89
2017-04-04T14:40:34.008Z,33.41
2017-04-04T14:41:35.442Z,33.70
2017-04-04T14:42:36.874Z,34.94
2017-04-04T14:43:38.308Z,33.70
2017-04-04T14:44:39.753Z,33.80
2017-04-04T14:45:41.191Z,33.78
2017-04-04T14:46:42.626Z,34.56
2017-04-04T14:47:44.063Z,34.08
2017-04-04T14:48:45.499Z,33.70
2017-04-04T14:49:46.934Z,34.66
2017-04-04T14:50:48.380Z,36.19
2017-04-04T14:51:49.816Z,34.74
2017-04-04T14:52:51.267Z,34.64
2017-04-04T14:53:52.702Z,35.88
2017-04-04T14:54:54.148Z,34.45
2017-04-04T14:55:55.582Z,33.30
2017-04-04T14:56:57.018Z,34.66
2017-04-04T14:57:58.456Z,34.85
2017-04-04T14:58:59.906Z,33.70
2017-04-04T15:00:01.345Z,33.99
2017-04-04T15:01:02.774Z,34.55
2017-04-04T15:02:04.214Z,35.41
2017-04-04T15:03:05.659Z,35.98
2017-04-04T15:04:07.087Z,34.64
2017-04-04T15:05:08.631Z,33.20
2017-04-04T15:06:10.060Z,31.87
2017-04-04T15:07:11.508Z,32.25
2017-04-04T15:08:12.940Z,32.92
2017-04-04T15:09:14.370Z,33.69
2017-04-04T15:10:15.817Z,32.82
2017-04-04T15:11:17.255Z,32.84
2017-04-04T15:12:18.706Z,34.74
2017-04-04T15:13:20.134Z,34.55
2017-04-04T15:14:21.577Z,32.06
2017-04-04T15:15:23.020Z,31.48
2017-04-04T15:16:24.450Z,33.01
2017-04-04T15:17:25.887Z,33.01
2017-04-04T15:18:27.323Z,32.44
2017-04-04T15:19:28.751Z,33.40
2017-04-04T15:20:30.196Z,33.49
2017-04-04T15:21:31.632Z,32.54
2017-04-04T15:22:33.062Z,31.01
2017-04-04T15:23:34.498Z,30.15
2017-04-04T15:24:35.928Z,31.38
2017-04-04T15:25:37.372Z,32.34
2017-04-04T15:26:38.806Z,32.73
2017-04-04T15:27:40.244Z,31.77
2017-04-04T15:28:41.672Z,32.44
2017-04-04T15:29:43.113Z,32.06
2017-04-04T15:30:44.552Z,30.93
2017-04-04T15:31:45.985Z,29.87
2017-04-04T15:32:47.441Z,31.59
2017-04-04T15:33:48.878Z,30.16
2017-04-04T15:34:50.313Z,29.86
2017-04-04T15:35:51.753Z,30.33
2017-04-04T15:36:53.199Z,30.81
2017-04-04T15:37:54.633Z,31.96
2017-04-04T15:38:56.066Z,32.54
2017-04-04T15:39:57.494Z,30.05
2017-04-04T15:40:58.936Z,29.86
2017-04-04T15:42:00.380Z,32.06
2017-04-04T15:43:01.811Z,33.20
2017-04-04T15:44:03.247Z,32.63
2017-04-04T15:45:04.703Z,31.10
2017-04-04T15:46:06.133Z,31.48
2017-04-04T15:47:07.569Z,30.72
2017-04-04T15:48:09.007Z,31.29
2017-04-04T15:49:10.441Z,32.73
2017-04-04T15:50:11.877Z,33.69
2017-04-04T15:51:13.314Z,33.97
2017-04-04T15:52:14.769Z,33.40
2017-04-04T15:53:16.208Z,32.92
2017-04-04T15:54:17.644Z,32.54
2017-04-04T15:55:19.083Z,34.64
2017-04-04T15:56:20.525Z,34.53
2017-04-04T15:57:22.828Z,34.53
2017-04-04T15:58:24.258Z,36.25
2017-04-04T15:59:25.706Z,35.10
2017-04-04T16:00:27.149Z,33.38
2017-04-04T16:01:28.586Z,32.90
2017-04-04T16:02:30.037Z,32.63
2017-04-04T16:03:31.485Z,32.63
2017-04-04T16:04:32.923Z,33.01
2017-04-04T16:05:34.349Z,33.01
2017-04-04T16:06:35.784Z,31.87
2017-04-04T16:07:37.223Z,31.29
2017-04-04T16:08:38.659Z,32.06
2017-04-04T16:09:40.094Z,32.63
2017-04-04T16:10:41.531Z,32.82
2017-04-04T16:11:42.971Z,32.15
2017-04-04T16:12:44.408Z,32.54
2017-04-04T16:13:45.858Z,33.76
2017-04-04T16:14:47.297Z,34.14
2017-04-04T16:15:48.726Z,33.40
2017-04-04T16:16:50.166Z,31.96
2017-04-04T16:17:51.606Z,32.34
2017-04-04T16:18:53.035Z,33.86
2017-04-04T16:19:54.469Z,32.62
2017-04-04T16:20:55.908Z,33.67
2017-04-04T16:21:57.349Z,34.24
2017-04-04T16:22:58.784Z,35.29
2017-04-04T16:24:00.213Z,34.81
2017-04-04T16:25:01.645Z,32.33
2017-04-04T16:26:03.083Z,31.18
2017-04-04T16:27:04.524Z,31.09
2017-04-04T16:28:05.965Z,31.47
2017-04-04T16:29:07.394Z,31.37
2017-04-04T16:30:08.836Z,30.90
2017-04-04T16:31:10.277Z,30.99
2017-04-04T16:32:11.711Z,31.37
2017-04-04T16:33:13.151Z,31.66
2017-04-04T16:34:14.590Z,30.22
2017-04-04T16:35:16.016Z,29.65
2017-04-04T16:36:17.469Z,30.70
2017-04-04T16:37:18.913Z,31.66
2017-04-04T16:38:20.345Z,32.42
2017-04-04T16:39:21.774Z,32.42
2017-04-04T16:40:23.219Z,31.47
2017-04-04T16:41:24.653Z,30.51
2017-04-04T16:42:26.098Z,31.47
2017-04-04T16:43:27.530Z,29.65
2017-04-04T16:44:28.973Z,28.59
2017-04-04T16:45:30.400Z,29.55
2017-04-04T16:46:31.844Z,29.46
2017-04-04T16:47:33.289Z,30.32
2017-04-04T16:48:34.720Z,31.09
2017-04-04T16:49:36.171Z,30.70
2017-04-04T16:50:37.601Z,30.03
2017-04-04T16:51:39.033Z,29.17
2017-04-04T16:52:40.469Z,29.65
2017-04-04T16:53:41.959Z,29.84
2017-04-04T16:54:43.394Z,31.95
2017-04-04T16:55:44.829Z,30.99
2017-04-04T16:56:46.257Z,30.03
2017-04-04T16:57:47.808Z,29.55
2017-04-04T16:58:49.250Z,29.74
2017-04-04T16:59:50.688Z,29.54
2017-04-04T17:00:52.126Z,30.41
2017-04-04T17:01:53.571Z,31.26
2017-04-04T17:02:55.010Z,29.74
2017-04-04T17:03:56.455Z,30.02
2017-04-04T17:04:57.892Z,30.21
2017-04-04T17:05:59.344Z,29.92
2017-04-04T17:07:00.776Z,30.49
2017-04-04T17:08:02.219Z,31.93
2017-04-04T17:09:03.734Z,32.70
2017-04-04T17:10:05.168Z,30.98
2017-04-04T17:11:06.597Z,31.07
2017-04-04T17:12:08.029Z,30.49
2017-04-04T17:13:09.464Z,30.49
2017-04-04T17:14:10.914Z,29.25
2017-04-04T17:15:12.343Z,30.49
2017-04-04T17:16:13.845Z,29.63
2017-04-04T17:17:15.274Z,30.21
2017-04-04T17:18:16.712Z,32.21
2017-04-04T17:19:18.194Z,30.02
2017-04-04T17:20:19.625Z,30.49
2017-04-04T17:21:21.059Z,29.73
2017-04-04T17:22:22.484Z,29.63
2017-04-04T17:23:23.935Z,29.16
2017-04-04T17:24:25.386Z,30.21
2017-04-04T17:25:26.831Z,30.30
2017-04-04T17:26:28.272Z,30.40
2017-04-04T17:27:29.710Z,30.88
2017-04-04T17:28:31.147Z,31.55
2017-04-04T17:29:32.575Z,33.73
2017-04-04T17:30:34.011Z,32.58
2017-04-04T17:31:35.447Z,32.58
2017-04-04T17:32:36.880Z,32.97
2017-04-04T17:33:38.322Z,32.39
2017-04-04T17:34:39.765Z,32.78
2017-04-04T17:35:41.203Z,33.06
2017-04-04T17:36:42.632Z,33.92
2017-04-04T17:37:44.171Z,32.58
2017-04-04T17:38:45.611Z,33.15
2017-04-04T17:39:47.048Z,32.49
2017-04-04T17:40:48.501Z,32.60
2017-04-04T17:41:49.930Z,32.97
2017-04-04T17:42:51.363Z,34.40
2017-04-04T17:43:52.807Z,35.06
2017-04-04T17:44:54.235Z,35.16
2017-04-04T17:45:55.682Z,34.20
2017-04-04T17:46:57.131Z,33.15
2017-04-04T17:47:58.564Z,33.44
2017-04-04T17:49:00.035Z,32.78
2017-04-04T17:50:01.471Z,33.83
2017-04-04T17:51:02.913Z,33.15
2017-04-04T17:52:04.350Z,32.87
2017-04-04T17:53:05.789Z,32.78
2017-04-04T17:54:07.227Z,33.15
2017-04-04T17:55:08.677Z,33.83
2017-04-04T17:56:10.108Z,33.54
2017-04-04T17:57:11.543Z,33.83
2017-04-04T17:58:12.977Z,33.54
2017-04-04T17:59:14.416Z,34.11
2017-04-04T18:00:15.920Z,34.40
2017-04-04T18:01:17.358Z,35.06
2017-04-04T18:02:18.789Z,34.86
2017-04-04T18:03:20.213Z,34.67
2017-04-04T18:04:21.645Z,35.05
2017-04-04T18:05:23.077Z,35.82
2017-04-04T18:06:24.508Z,36.48
2017-04-04T18:07:25.944Z,37.90
2017-04-04T18:08:27.411Z,36.68
2017-04-04T18:09:28.838Z,36.96
2017-04-04T18:10:30.273Z,37.51
2017-04-04T18:11:31.701Z,38.18
2017-04-04T18:12:33.140Z,38.47
2017-04-04T18:13:34.570Z,39.04
2017-04-04T18:14:36.084Z,38.85
2017-04-04T18:15:37.528Z,39.23
2017-04-04T18:16:38.962Z,39.14
2017-04-04T18:17:40.395Z,39.23
2017-04-04T18:18:41.913Z,40.00
2017-04-04T18:19:44.917Z,40.37
2017-04-04T18:20:46.349Z,40.09
2017-04-04T18:21:47.776Z,40.00
2017-04-04T18:22:49.214Z,42.93
2017-04-04T18:23:50.646Z,42.84
2017-04-04T18:24:52.072Z,43.29
2017-04-04T18:25:53.507Z,43.68
2017-04-04T18:26:54.937Z,43.87
2017-04-04T18:27:56.377Z,44.82
2017-04-04T18:28:57.803Z,44.92
2017-04-04T18:29:59.228Z,44.92
2017-04-04T18:31:00.672Z,45.39
2017-04-04T18:32:02.114Z,45.87
2017-04-04T18:33:03.544Z,46.06
2017-04-04T18:34:05.004Z,47.28
2017-04-04T18:35:06.410Z,47.66
2017-04-04T18:36:07.838Z,48.04
2017-04-04T18:37:09.268Z,48.61
2017-04-04T18:38:10.702Z,48.71
2017-04-04T18:39:12.142Z,47.66
2017-04-04T18:40:13.573Z,47.47
2017-04-04T18:41:15.006Z,47.85
2017-04-04T18:42:16.428Z,49.08
2017-04-04T18:43:17.862Z,48.13
2017-04-04T18:44:19.298Z,48.99
2017-04-04T18:45:20.729Z,49.66
2017-04-04T18:46:22.159Z,49.56
2017-04-04T18:47:23.603Z,49.54
2017-04-04T18:48:25.031Z,49.37
2017-04-04T18:49:26.463Z,49.73
2017-04-04T18:50:27.890Z,50.49
2017-04-04T18:51:29.314Z,51.54
2017-04-04T18:52:30.740Z,51.35
2017-04-04T18:53:32.178Z,50.49
2017-04-04T18:54:33.620Z,51.45
2017-04-04T18:55:35.038Z,51.54
2017-04-04T18:56:36.469Z,51.25
2017-04-04T18:57:37.888Z,51.54
2017-04-04T18:58:39.318Z,53.04
2017-04-04T18:59:40.762Z,53.80
2017-04-04T19:00:42.196Z,54.56
2017-04-04T19:01:43.631Z,55.68
2017-04-04T19:02:45.059Z,55.96
2017-04-04T19:03:46.480Z,57.29
2017-04-04T19:04:47.923Z,58.06
2017-04-04T19:05:49.356Z,57.39
2017-04-04T19:06:50.785Z,57.48
2017-04-04T19:07:52.212Z,58.25
2017-04-04T19:08:53.649Z,58.72
2017-04-04T19:09:55.076Z,58.15
2017-04-04T19:10:57.815Z,59.01
2017-04-04T19:11:59.251Z,58.06
2017-04-04T19:13:05.131Z,57.96
2017-04-04T19:14:06.561Z,58.25
2017-04-04T19:15:10.659Z,58.53
2017-04-04T19:16:12.076Z,58.62
2017-04-04T19:17:13.511Z,58.72
2017-04-04T19:18:14.935Z,59.10
2017-04-04T19:19:16.356Z,59.01
2017-04-04T19:20:17.865Z,59.77
2017-04-04T19:21:19.297Z,59.29
2017-04-04T19:22:20.717Z,59.01
2017-04-04T19:23:22.142Z,58.53
2017-04-04T19:24:23.574Z,58.56
2017-04-04T19:25:25.011Z,57.32
2017-04-04T19:26:26.437Z,57.42
2017-04-04T19:27:27.868Z,57.60
2017-04-04T19:28:29.300Z,57.32
2017-04-04T19:29:30.730Z,57.42
2017-04-04T19:30:32.157Z,56.27
2017-04-04T19:31:33.591Z,56.18
2017-04-04T19:32:35.033Z,55.51
2017-04-04T19:33:36.463Z,55.07
2017-04-04T19:34:37.899Z,53.61
2017-04-04T19:35:39.332Z,53.35
2017-04-04T19:36:40.762Z,55.61
2017-04-04T19:37:42.198Z,56.75
2017-04-04T19:38:43.650Z,57.51
2017-04-04T19:39:45.088Z,56.37
2017-04-04T19:40:46.519Z,57.42
2017-04-04T19:41:47.952Z,56.56
2017-04-04T19:42:49.381Z,56.27
2017-04-04T19:43:50.819Z,56.27
2017-04-04T19:44:52.256Z,57.42
2017-04-04T19:45:53.690Z,56.65
2017-04-04T19:46:55.124Z,57.51
2017-04-04T19:47:56.552Z,57.23
2017-04-04T19:48:57.982Z,56.94
2017-04-04T19:49:59.415Z,58.37
2017-04-04T19:51:00.851Z,57.04
2017-04-04T19:52:02.292Z,56.85
2017-04-04T19:53:03.721Z,57.70
2017-04-04T19:54:05.151Z,58.18
2017-04-04T19:55:06.580Z,57.42
2017-04-04T19:56:08.018Z,57.51
2017-04-04T19:57:09.447Z,57.23
2017-04-04T19:58:10.869Z,58.06
2017-04-04T19:59:12.304Z,58.91
2017-04-04T20:00:13.737Z,58.62
2017-04-04T20:01:15.160Z,58.34
2017-04-04T20:02:16.595Z,58.34
2017-04-04T20:03:18.020Z,58.72
2017-04-04T20:04:19.446Z,58.72
2017-04-04T20:05:20.895Z,57.32
2017-04-04T20:06:22.326Z,56.34
2017-04-04T20:07:23.756Z,56.34
2017-04-04T20:08:25.179Z,58.15
2017-04-04T20:09:27.102Z,58.34
2017-04-04T20:10:28.531Z,58.06
2017-04-04T20:11:29.955Z,58.34
2017-04-04T20:12:31.379Z,57.39
2017-04-04T20:13:32.811Z,57.29
2017-04-04T20:14:34.230Z,57.48
2017-04-04T20:15:35.661Z,58.06
2017-04-04T20:16:37.086Z,58.12
2017-04-04T20:17:38.514Z,58.59
2017-04-04T20:18:39.950Z,60.02
2017-04-04T20:19:41.374Z,60.50
2017-04-04T20:20:43.579Z,60.78
2017-04-04T20:21:45.947Z,60.21
2017-04-04T20:22:47.378Z,59.64
2017-04-04T20:23:49.721Z,60.69
2017-04-04T20:24:51.163Z,60.88
2017-04-04T20:25:53.124Z,60.41
2017-04-04T20:26:55.126Z,61.55
2017-04-04T20:27:57.295Z,61.90
2017-04-04T20:28:58.720Z,62.94
2017-04-04T20:30:00.688Z,63.23
2017-04-04T20:31:02.805Z,63.13
2017-04-04T20:32:04.234Z,63.04
2017-04-04T20:33:06.547Z,63.42
2017-04-04T20:34:08.825Z,63.70
2017-04-04T20:35:10.251Z,62.75
2017-04-04T20:36:12.600Z,60.47
2017-04-04T20:37:14.024Z,59.55
2017-04-04T20:38:15.967Z,59.64
2017-04-04T20:39:17.393Z,59.74
2017-04-04T20:40:18.827Z,60.50
2017-04-04T20:41:20.273Z,60.97
2017-04-04T20:42:22.269Z,60.38
2017-04-04T20:43:24.277Z,62.46
2017-04-04T20:44:26.271Z,62.65
2017-04-04T20:45:28.697Z,61.83
2017-04-04T20:46:30.126Z,62.75
2017-04-04T20:47:32.082Z,63.23
2017-04-04T20:48:34.487Z,63.32
2017-04-04T20:49:36.819Z,63.89
2017-04-04T20:50:39.169Z,63.79
2017-04-04T20:51:40.599Z,64.08
2017-04-04T20:52:42.784Z,64.46
2017-04-04T20:53:44.819Z,62.75
2017-04-04T20:54:46.827Z,63.04
2017-04-04T20:55:48.823Z,62.18
2017-04-04T20:56:50.777Z,62.49
2017-04-04T20:57:53.079Z,62.37
2017-04-04T20:58:55.323Z,62.65
2017-04-04T20:59:56.770Z,62.94
2017-04-04T21:00:58.915Z,63.60
2017-04-04T21:02:01.832Z,63.86
2017-04-04T21:03:03.270Z,63.32
2017-04-04T21:04:05.342Z,63.70
2017-04-04T21:05:07.423Z,64.08
2017-04-04T21:06:09.597Z,64.81
2017-04-04T21:07:11.029Z,65.47
2017-04-04T21:08:13.087Z,66.05
2017-04-04T21:09:15.282Z,66.42
2017-04-04T21:10:17.421Z,67.06
2017-04-04T21:11:19.429Z,66.71
2017-04-04T21:12:21.657Z,67.00
2017-04-04T21:13:23.080Z,66.33
2017-04-04T21:14:25.420Z,66.33
2017-04-04T21:15:26.853Z,67.19
2017-04-04T21:16:28.921Z,66.52
2017-04-04T21:17:31.114Z,66.33
2017-04-04T21:18:32.572Z,66.80
2017-04-04T21:19:34.866Z,67.66
2017-04-04T21:20:36.323Z,67.76
2017-04-04T21:21:37.756Z,67.66
2017-04-04T21:22:39.212Z,66.52
2017-04-04T21:23:41.654Z,66.80
2017-04-04T21:24:43.085Z,67.57
2017-04-04T21:25:45.291Z,66.42
2017-04-04T21:26:47.622Z,65.67
2017-04-04T21:27:49.054Z,65.76
2017-04-04T21:28:50.489Z,65.41
2017-04-04T21:29:52.597Z,66.61
2017-04-04T21:30:54.731Z,66.80
2017-04-04T21:31:56.818Z,66.33
2017-04-04T21:32:58.919Z,67.09
2017-04-04T21:34:00.938Z,68.04
2017-04-04T21:35:04.461Z,68.23
2017-04-04T21:36:07.272Z,68.71
2017-04-04T21:37:09.318Z,68.13
2017-04-04T21:38:11.315Z,67.85
2017-04-04T21:39:13.177Z,68.33
2017-04-04T21:40:15.585Z,68.99
2017-04-04T21:41:17.006Z,67.76
2017-04-04T21:42:19.023Z,67.38
2017-04-04T21:43:21.130Z,67.38
2017-04-04T21:44:22.558Z,67.19
2017-04-04T21:45:24.904Z,66.90
2017-04-04T21:46:27.127Z,66.90
2017-04-04T21:47:28.561Z,66.90
2017-04-04T21:48:31.442Z,66.52
2017-04-04T21:49:33.121Z,66.61
2017-04-04T21:50:34.562Z,66.42
2017-04-04T21:51:36.584Z,66.33
2017-04-04T21:52:38.675Z,67.00
2017-04-04T21:53:40.103Z,66.90
2017-04-04T21:54:42.089Z,66.33
2017-04-04T21:55:44.132Z,66.20
2017-04-04T21:56:46.133Z,67.15
2017-04-04T21:57:48.329Z,67.38
2017-04-04T21:58:50.388Z,67.25
2017-04-04T21:59:51.840Z,68.48
2017-04-04T22:00:54.029Z,69.71
2017-04-04T22:01:56.337Z,70.10
2017-04-04T22:02:57.777Z,70.48
2017-04-04T22:03:59.995Z,70.57
2017-04-04T22:05:02.339Z,69.81
2017-04-04T22:06:03.786Z,69.24
2017-04-04T22:07:05.938Z,69.71
2017-04-04T22:08:08.068Z,69.34
2017-04-04T22:09:10.056Z,70.38
2017-04-04T22:10:12.468Z,69.62
2017-04-04T22:11:14.437Z,69.62
2017-04-04T22:12:15.865Z,69.91
2017-04-04T22:13:17.875Z,69.53
2017-04-04T22:14:19.886Z,69.91
2017-04-04T22:15:21.965Z,69.71
2017-04-04T22:16:24.080Z,69.71
2017-04-04T22:17:26.176Z,70.67
2017-04-04T22:18:28.192Z,71.23
2017-04-04T22:19:30.186Z,70.57
2017-04-04T22:20:32.964Z,70.57
2017-04-04T22:21:34.401Z,70.00
2017-04-04T22:22:36.790Z,69.81
2017-04-04T22:23:38.232Z,69.81
2017-04-04T22:24:40.221Z,68.86
2017-04-04T22:25:42.248Z,69.15
2017-04-04T22:26:44.289Z,70.48
2017-04-04T22:27:46.361Z,70.00
2017-04-04T22:28:48.539Z,70.67
2017-04-04T22:29:49.971Z,70.19
2017-04-04T22:30:51.944Z,70.10
2017-04-04T22:31:54.057Z,69.71
2017-04-04T22:32:55.502Z,70.57
2017-04-04T22:33:57.840Z,70.57
2017-04-04T22:34:59.277Z,71.01
2017-04-04T22:36:01.243Z,71.67
2017-04-04T22:37:03.342Z,72.06
2017-04-04T22:38:05.348Z,71.33
2017-04-04T22:39:07.373Z,70.48
2017-04-04T22:40:08.801Z,71.30
2017-04-04T22:41:11.213Z,71.20
2017-04-04T22:42:12.647Z,70.95
2017-04-04T22:43:14.666Z,71.77
2017-04-04T22:44:16.839Z,72.34
2017-04-04T22:45:18.280Z,71.67
2017-04-04T22:46:20.549Z,71.01
2017-04-04T22:47:21.974Z,71.48
2017-04-04T22:48:23.400Z,73.10
2017-04-04T22:49:25.745Z,73.67
2017-04-04T22:50:28.094Z,73.38
2017-04-04T22:51:29.518Z,73.96
2017-04-04T22:52:31.543Z,72.63
2017-04-04T22:53:32.987Z,72.25
2017-04-04T22:54:35.251Z,72.72
2017-04-04T22:55:36.689Z,73.10
2017-04-04T22:56:39.048Z,71.86
2017-04-04T22:57:42.932Z,71.67
2017-04-04T22:58:45.342Z,72.25
2017-04-04T23:00:49.038Z,70.73
2017-04-04T23:01:51.164Z,70.92
2017-04-04T23:02:53.328Z,71.58
2017-04-04T23:03:55.452Z,71.39
2017-04-04T23:04:57.454Z,71.67
2017-04-04T23:05:59.407Z,72.91
2017-04-04T23:07:01.849Z,72.81
2017-04-04T23:08:03.243Z,73.00
2017-04-04T23:09:05.261Z,72.91
2017-04-04T23:10:07.498Z,73.48
2017-04-04T23:11:09.685Z,73.48
2017-04-04T23:12:12.026Z,72.91
2017-04-04T23:13:14.099Z,73.29
2017-04-04T23:14:16.113Z,74.30
2017-04-04T23:15:18.057Z,75.72
2017-04-04T23:16:20.068Z,75.72
2017-04-04T23:17:22.415Z,76.39
2017-04-04T23:18:24.601Z,77.81
2017-04-04T23:19:26.845Z,77.62
2017-04-04T23:20:29.034Z,76.61
2017-04-04T23:21:30.457Z,76.29
2017-04-04T23:22:32.852Z,77.71
2017-04-04T23:23:34.318Z,78.75
2017-04-04T23:24:36.286Z,78.56
2017-04-04T23:25:38.303Z,78.19
2017-04-04T23:26:40.269Z,78.66
2017-04-04T23:27:42.574Z,79.04
2017-04-04T23:28:44.840Z,77.81
2017-04-04T23:29:47.008Z,76.23
2017-04-04T23:30:49.227Z,75.09
2017-04-04T23:31:50.656Z,74.33
2017-04-04T23:32:52.792Z,74.33
2017-04-04T23:33:54.774Z,74.62
2017-04-04T23:34:56.716Z,74.33
2017-04-04T23:35:58.708Z,74.33
2017-04-04T23:37:00.640Z,73.86
2017-04-04T23:38:02.936Z,73.86
2017-04-04T23:39:05.156Z,73.76
2017-04-04T23:40:07.523Z,73.67
2017-04-04T23:41:09.724Z,73.86
2017-04-04T23:42:11.154Z,73.86
2017-04-04T23:43:13.166Z,73.57
2017-04-04T23:44:15.221Z,73.76
2017-04-04T23:45:17.628Z,74.49
2017-04-04T23:46:19.965Z,75.15
2017-04-04T23:47:21.396Z,76.20
2017-04-04T23:48:23.738Z,77.62
2017-04-04T23:49:26.022Z,77.81
2017-04-04T23:50:28.394Z,77.62
2017-04-04T23:51:29.825Z,76.01
2017-04-04T23:52:31.940Z,76.39
2017-04-04T23:53:34.003Z,76.95
2017-04-04T23:54:36.019Z,77.81
2017-04-04T23:55:37.979Z,77.43
2017-04-04T23:56:40.433Z,75.85
2017-04-04T23:57:42.683Z,74.62
2017-04-04T23:58:44.113Z,73.67
2017-04-04T23:59:45.538Z,74.15
